Temp: 12.4°C   Baro: 1022.3mb
  Wind: 0.0mph   Dir: NE (54°)
  Rain: 0.0mm (0.0mm/hr)
  Solar: 0W/m2  Hum: 85%

Historic data

Bath Spa Weather Station Historical Data
Daily Summary for September 29, 2019 Units:  Both    English   Metric
Daily Weekly Monthly Yearly Custom
  High: Low: Average:
Temperature: 51 °F /  10.6 °C 43.3 °F /  6.3 °C 47 °F /  8.3 °C
Dew Point: 44.4 °F /  6.9 °C 39.4 °F /  4.1 °C 41.9 °F /  5.5 °C
Humidity: 87% 78% 83%
Wind Speed: 7.2mph /  11.6km/h - 4.2mph /  6.8km/h
Wind Gust: 17mph /  27.4km/h - -
Wind- - East
Pressure: 30.26 in /  1024.6 hPa 30.22 in /  1023.2 hPa -
Precipitation: 0.00 in /  0 mm    
Historical Graphs
 
 
Tabular Data for September 29, 2019
Time Temperature Dew Point Pressure Wind Wind Speed Wind Gust Humidity Rainfall Rate (Hourly) solar
00:04 45.5 °F /  7.5 °C 41.5 °F /  5.3 °C 30.23in /  1023.6hPa ENE 5.9mph /  9.5km/h 11mph /  17.7km/h 86% 0.00in /  0mm 0 W/m2
00:09 45.4 °F /  7.4 °C 41.5 °F /  5.3 °C 30.23in /  1023.6hPa NE 4.3mph /  6.9km/h 11mph /  17.7km/h 86% 0.00in /  0mm 0 W/m2
00:14 45.4 °F /  7.4 °C 41.5 °F /  5.3 °C 30.23in /  1023.6hPa ENE 4.2mph /  6.8km/h 11mph /  17.7km/h 86% 0.00in /  0mm 0 W/m2
00:19 45.5 °F /  7.5 °C 41.5 °F /  5.3 °C 30.23in /  1023.6hPa ENE 4.5mph /  7.2km/h 13mph /  20.9km/h 86% 0.00in /  0mm 0 W/m2
00:24 45.5 °F /  7.5 °C 41.5 °F /  5.3 °C 30.23in /  1023.6hPa East 5.5mph /  8.9km/h 13mph /  20.9km/h 86% 0.00in /  0mm 0 W/m2
00:29 45.5 °F /  7.5 °C 41.5 °F /  5.3 °C 30.23in /  1023.6hPa East 3.5mph /  5.6km/h 11mph /  17.7km/h 86% 0.00in /  0mm 0 W/m2
00:34 45.5 °F /  7.5 °C 41.5 °F /  5.3 °C 30.23in /  1023.6hPa East 3.5mph /  5.6km/h 11mph /  17.7km/h 86% 0.00in /  0mm 0 W/m2
00:39 45.5 °F /  7.5 °C 41.5 °F /  5.3 °C 30.23in /  1023.6hPa ENE 3.3mph /  5.3km/h 10mph /  16.1km/h 86% 0.00in /  0mm 0 W/m2
00:44 45.4 °F /  7.4 °C 41.4 °F /  5.2 °C 30.23in /  1023.6hPa East 5mph /  8km/h 13mph /  20.9km/h 86% 0.00in /  0mm 0 W/m2
00:49 45.3 °F /  7.4 °C 41.4 °F /  5.2 °C 30.23in /  1023.6hPa ENE 5.3mph /  8.5km/h 12mph /  19.3km/h 86% 0.00in /  0mm 0 W/m2
00:54 45.3 °F /  7.4 °C 41.4 °F /  5.2 °C 30.23in /  1023.6hPa East 5.5mph /  8.9km/h 11mph /  17.7km/h 86% 0.00in /  0mm 0 W/m2
00:59 45.3 °F /  7.4 °C 41.4 °F /  5.2 °C 30.23in /  1023.6hPa East 4.8mph /  7.7km/h 12mph /  19.3km/h 86% 0.00in /  0mm 0 W/m2
01:04 45.3 °F /  7.4 °C 41.4 °F /  5.2 °C 30.23in /  1023.6hPa ENE 6.2mph /  10km/h 14mph /  22.5km/h 86% 0.00in /  0mm 0 W/m2
01:09 45.3 °F /  7.4 °C 41.4 °F /  5.2 °C 30.23in /  1023.6hPa ENE 3.9mph /  6.3km/h 12mph /  19.3km/h 86% 0.00in /  0mm 0 W/m2
01:14 45.3 °F /  7.4 °C 41.4 °F /  5.2 °C 30.23in /  1023.6hPa ENE 3.5mph /  5.6km/h 12mph /  19.3km/h 86% 0.00in /  0mm 0 W/m2
01:19 45.1 °F /  7.3 °C 41.2 °F /  5.1 °C 30.23in /  1023.6hPa ENE 5.5mph /  8.9km/h 12mph /  19.3km/h 86% 0.00in /  0mm 0 W/m2
01:24 45.1 °F /  7.3 °C 41.2 °F /  5.1 °C 30.23in /  1023.6hPa East 5.6mph /  9km/h 10mph /  16.1km/h 86% 0.00in /  0mm 0 W/m2
01:29 45.1 °F /  7.3 °C 41.2 °F /  5.1 °C 30.23in /  1023.6hPa ENE 3.2mph /  5.1km/h 8mph /  12.9km/h 86% 0.00in /  0mm 0 W/m2
01:34 45.1 °F /  7.3 °C 41.2 °F /  5.1 °C 30.23in /  1023.6hPa East 5.3mph /  8.5km/h 13mph /  20.9km/h 86% 0.00in /  0mm 0 W/m2
01:39 45 °F /  7.2 °C 41.1 °F /  5.1 °C 30.23in /  1023.6hPa ENE 3.9mph /  6.3km/h 11mph /  17.7km/h 86% 0.00in /  0mm 0 W/m2
01:44 45 °F /  7.2 °C 41 °F /  5 °C 30.23in /  1023.6hPa East 4.9mph /  7.9km/h 14mph /  22.5km/h 86% 0.00in /  0mm 0 W/m2
01:49 45 °F /  7.2 °C 41 °F /  5 °C 30.23in /  1023.6hPa ENE 3.8mph /  6.1km/h 14mph /  22.5km/h 86% 0.00in /  0mm 0 W/m2
01:54 44.9 °F /  7.2 °C 40.9 °F /  4.9 °C 30.23in /  1023.6hPa ENE 5.6mph /  9km/h 14mph /  22.5km/h 86% 0.00in /  0mm 0 W/m2
01:59 44.9 °F /  7.2 °C 40.9 °F /  4.9 °C 30.23in /  1023.6hPa East 4.6mph /  7.4km/h 14mph /  22.5km/h 86% 0.00in /  0mm 0 W/m2
02:04 44.9 °F /  7.2 °C 41 °F /  5 °C 30.23in /  1023.6hPa ENE 4.2mph /  6.8km/h 11mph /  17.7km/h 86.2% 0.00in /  0mm 0 W/m2
02:09 44.8 °F /  7.1 °C 40.9 °F /  4.9 °C 30.23in /  1023.6hPa ENE 4.8mph /  7.7km/h 13mph /  20.9km/h 86.3% 0.00in /  0mm 0 W/m2
02:14 44.8 °F /  7.1 °C 40.8 °F /  4.9 °C 30.23in /  1023.6hPa ENE 3.2mph /  5.1km/h 14mph /  22.5km/h 86% 0.00in /  0mm 0 W/m2
02:19 44.8 °F /  7.1 °C 40.8 °F /  4.9 °C 30.22in /  1023.2hPa East 1.7mph /  2.7km/h 14mph /  22.5km/h 86% 0.00in /  0mm 0 W/m2
02:24 44.7 °F /  7.1 °C 41 °F /  5 °C 30.22in /  1023.2hPa East 5.3mph /  8.5km/h 13mph /  20.9km/h 86.8% 0.00in /  0mm 0 W/m2
02:29 44.6 °F /  7 °C 41 °F /  5 °C 30.23in /  1023.6hPa ENE 2mph /  3.2km/h 13mph /  20.9km/h 87% 0.00in /  0mm 0 W/m2
02:34 44.5 °F /  6.9 °C 40.9 °F /  4.9 °C 30.23in /  1023.6hPa East 5.4mph /  8.7km/h 10mph /  16.1km/h 87% 0.00in /  0mm 0 W/m2
02:39 44.4 °F /  6.9 °C 40.8 °F /  4.9 °C 30.22in /  1023.2hPa ENE 4.2mph /  6.8km/h 10mph /  16.1km/h 87% 0.00in /  0mm 0 W/m2
02:44 44.4 °F /  6.9 °C 40.8 °F /  4.9 °C 30.22in /  1023.2hPa East 6.6mph /  10.6km/h 15mph /  24.1km/h 87% 0.00in /  0mm 0 W/m2
02:49 44.4 °F /  6.9 °C 40.8 °F /  4.9 °C 30.23in /  1023.6hPa ENE 4.2mph /  6.8km/h 12mph /  19.3km/h 87% 0.00in /  0mm 0 W/m2
02:54 44.4 °F /  6.9 °C 40.8 °F /  4.9 °C 30.23in /  1023.6hPa East 6mph /  9.7km/h 14mph /  22.5km/h 87% 0.00in /  0mm 0 W/m2
02:59 44.4 °F /  6.9 °C 40.8 °F /  4.9 °C 30.23in /  1023.6hPa East 5mph /  8km/h 15mph /  24.1km/h 87% 0.00in /  0mm 0 W/m2
03:04 44.4 °F /  6.9 °C 40.8 °F /  4.9 °C 30.23in /  1023.6hPa East 5.3mph /  8.5km/h 12mph /  19.3km/h 87% 0.00in /  0mm 0 W/m2
03:09 44.4 °F /  6.9 °C 40.8 °F /  4.9 °C 30.23in /  1023.6hPa East 4.7mph /  7.6km/h 12mph /  19.3km/h 87% 0.00in /  0mm 0 W/m2
03:14 44.3 °F /  6.8 °C 40.7 °F /  4.8 °C 30.23in /  1023.6hPa East 3.7mph /  6km/h 12mph /  19.3km/h 87% 0.00in /  0mm 0 W/m2
03:19 44.2 °F /  6.8 °C 40.6 °F /  4.8 °C 30.23in /  1023.6hPa East 4mph /  6.4km/h 10mph /  16.1km/h 87% 0.00in /  0mm 0 W/m2
03:24 44.2 °F /  6.8 °C 40.6 °F /  4.8 °C 30.23in /  1023.6hPa East 3.6mph /  5.8km/h 10mph /  16.1km/h 87% 0.00in /  0mm 0 W/m2
03:29 44.2 °F /  6.8 °C 40.6 °F /  4.8 °C 30.23in /  1023.6hPa East 4.7mph /  7.6km/h 10mph /  16.1km/h 87% 0.00in /  0mm 0 W/m2
03:34 44.2 °F /  6.8 °C 40.6 °F /  4.8 °C 30.23in /  1023.6hPa East 3.5mph /  5.6km/h 10mph /  16.1km/h 87% 0.00in /  0mm 0 W/m2
03:39 44.2 °F /  6.8 °C 40.6 °F /  4.8 °C 30.23in /  1023.6hPa East 4.6mph /  7.4km/h 13mph /  20.9km/h 87% 0.00in /  0mm 0 W/m2
03:44 44.2 °F /  6.8 °C 40.6 °F /  4.8 °C 30.22in /  1023.2hPa East 4.3mph /  6.9km/h 13mph /  20.9km/h 87% 0.00in /  0mm 0 W/m2
03:49 44.1 °F /  6.7 °C 40.5 °F /  4.7 °C 30.22in /  1023.2hPa ENE 3.9mph /  6.3km/h 10mph /  16.1km/h 87% 0.00in /  0mm 0 W/m2
03:54 44.1 °F /  6.7 °C 40.5 °F /  4.7 °C 30.23in /  1023.6hPa East 5.7mph /  9.2km/h 11mph /  17.7km/h 87% 0.00in /  0mm 0 W/m2
03:59 44.1 °F /  6.7 °C 40.5 °F /  4.7 °C 30.23in /  1023.6hPa East 7.2mph /  11.6km/h 15mph /  24.1km/h 87% 0.00in /  0mm 0 W/m2
04:04 44.1 °F /  6.7 °C 40.5 °F /  4.7 °C 30.23in /  1023.6hPa ENE 5.9mph /  9.5km/h 15mph /  24.1km/h 87% 0.00in /  0mm 0 W/m2
04:09 44.1 °F /  6.7 °C 40.5 °F /  4.7 °C 30.23in /  1023.6hPa East 6.4mph /  10.3km/h 13mph /  20.9km/h 87% 0.00in /  0mm 0 W/m2
04:14 44 °F /  6.7 °C 40.4 °F /  4.7 °C 30.23in /  1023.6hPa East 5.8mph /  9.3km/h 14mph /  22.5km/h 87% 0.00in /  0mm 0 W/m2
04:19 43.9 °F /  6.6 °C 40.3 °F /  4.6 °C 30.22in /  1023.2hPa East 6.3mph /  10.1km/h 15mph /  24.1km/h 87% 0.00in /  0mm 0 W/m2
04:24 43.9 °F /  6.6 °C 40.3 °F /  4.6 °C 30.22in /  1023.2hPa East 5.1mph /  8.2km/h 13mph /  20.9km/h 87% 0.00in /  0mm 0 W/m2
04:29 43.9 °F /  6.6 °C 40.3 °F /  4.6 °C 30.22in /  1023.2hPa East 5.4mph /  8.7km/h 13mph /  20.9km/h 87% 0.00in /  0mm 0 W/m2
04:34 43.9 °F /  6.6 °C 40.3 °F /  4.6 °C 30.22in /  1023.2hPa ENE 6.2mph /  10km/h 13mph /  20.9km/h 87% 0.00in /  0mm 0 W/m2
04:39 43.9 °F /  6.6 °C 40.3 °F /  4.6 °C 30.22in /  1023.2hPa ENE 4.1mph /  6.6km/h 11mph /  17.7km/h 87% 0.00in /  0mm 0 W/m2
04:44 43.9 °F /  6.6 °C 40.3 °F /  4.6 °C 30.23in /  1023.6hPa ENE 5.2mph /  8.4km/h 13mph /  20.9km/h 87% 0.00in /  0mm 0 W/m2
04:49 43.8 °F /  6.6 °C 40.2 °F /  4.6 °C 30.23in /  1023.6hPa East 4.3mph /  6.9km/h 11mph /  17.7km/h 87% 0.00in /  0mm 0 W/m2
04:54 43.8 °F /  6.6 °C 40.2 °F /  4.6 °C 30.23in /  1023.6hPa East 5.1mph /  8.2km/h 12mph /  19.3km/h 87% 0.00in /  0mm 0 W/m2
04:59 43.7 °F /  6.5 °C 40.1 °F /  4.5 °C 30.23in /  1023.6hPa East 3.3mph /  5.3km/h 10mph /  16.1km/h 87% 0.00in /  0mm 0 W/m2
05:04 43.7 °F /  6.5 °C 39.9 °F /  4.4 °C 30.23in /  1023.6hPa East 3.5mph /  5.6km/h 11mph /  17.7km/h 86.3% 0.00in /  0mm 0 W/m2
05:09 43.7 °F /  6.5 °C 39.7 °F /  4.3 °C 30.23in /  1023.6hPa East 4.4mph /  7.1km/h 13mph /  20.9km/h 86% 0.00in /  0mm 0 W/m2
05:14 43.8 °F /  6.6 °C 39.8 °F /  4.3 °C 30.23in /  1023.6hPa ENE 6.6mph /  10.6km/h 15mph /  24.1km/h 86% 0.00in /  0mm 0 W/m2
05:19 43.8 °F /  6.6 °C 39.8 °F /  4.3 °C 30.23in /  1023.6hPa East 5.3mph /  8.5km/h 15mph /  24.1km/h 86% 0.00in /  0mm 0 W/m2
05:24 43.8 °F /  6.6 °C 39.8 °F /  4.3 °C 30.23in /  1023.6hPa ENE 6.1mph /  9.8km/h 15mph /  24.1km/h 86% 0.00in /  0mm 0 W/m2
05:29 43.7 °F /  6.5 °C 39.7 °F /  4.3 °C 30.22in /  1023.2hPa ENE 5.2mph /  8.4km/h 15mph /  24.1km/h 86% 0.00in /  0mm 0 W/m2
05:34 43.7 °F /  6.5 °C 39.7 °F /  4.3 °C 30.22in /  1023.2hPa East 5.3mph /  8.5km/h 15mph /  24.1km/h 86% 0.00in /  0mm 0 W/m2
05:39 43.7 °F /  6.5 °C 39.7 °F /  4.3 °C 30.22in /  1023.2hPa East 6.4mph /  10.3km/h 15mph /  24.1km/h 86% 0.00in /  0mm 0 W/m2
05:44 43.6 °F /  6.4 °C 39.6 °F /  4.2 °C 30.22in /  1023.2hPa East 4.8mph /  7.7km/h 13mph /  20.9km/h 86% 0.00in /  0mm 0 W/m2
05:49 43.5 °F /  6.4 °C 39.6 °F /  4.2 °C 30.22in /  1023.2hPa ENE 4.8mph /  7.7km/h 13mph /  20.9km/h 86% 0.00in /  0mm 0 W/m2
05:54 43.5 °F /  6.4 °C 39.6 °F /  4.2 °C 30.22in /  1023.2hPa East 4.6mph /  7.4km/h 13mph /  20.9km/h 86% 0.00in /  0mm 0 W/m2
05:59 43.5 °F /  6.4 °C 39.6 °F /  4.2 °C 30.23in /  1023.6hPa East 4mph /  6.4km/h 10mph /  16.1km/h 86% 0.00in /  0mm 0 W/m2
06:04 43.5 °F /  6.4 °C 39.6 °F /  4.2 °C 30.23in /  1023.6hPa East 4.1mph /  6.6km/h 10mph /  16.1km/h 86% 0.00in /  0mm 0 W/m2
06:09 43.5 °F /  6.4 °C 39.6 °F /  4.2 °C 30.23in /  1023.6hPa East 4.7mph /  7.6km/h 13mph /  20.9km/h 86% 0.00in /  0mm 0 W/m2
06:14 43.5 °F /  6.4 °C 39.6 °F /  4.2 °C 30.23in /  1023.6hPa East 5.2mph /  8.4km/h 16mph /  25.7km/h 86% 0.00in /  0mm 0 W/m2
06:19 43.5 °F /  6.4 °C 39.6 °F /  4.2 °C 30.23in /  1023.6hPa ENE 4.3mph /  6.9km/h 11mph /  17.7km/h 86% 0.00in /  0mm 0 W/m2
06:24 43.5 °F /  6.4 °C 39.6 °F /  4.2 °C 30.23in /  1023.6hPa ENE 3.3mph /  5.3km/h 11mph /  17.7km/h 86% 0.00in /  0mm 0 W/m2
06:29 43.4 °F /  6.3 °C 39.5 °F /  4.2 °C 30.23in /  1023.6hPa East 4.3mph /  6.9km/h 12mph /  19.3km/h 86% 0.00in /  0mm 0 W/m2
06:34 43.4 °F /  6.3 °C 39.5 °F /  4.2 °C 30.23in /  1023.6hPa ENE 6mph /  9.7km/h 15mph /  24.1km/h 86% 0.00in /  0mm 0 W/m2
06:39 43.3 °F /  6.3 °C 39.4 °F /  4.1 °C 30.24in /  1023.9hPa ENE 2.9mph /  4.7km/h 11mph /  17.7km/h 86% 0.00in /  0mm 0 W/m2
06:44 43.3 °F /  6.3 °C 39.4 °F /  4.1 °C 30.24in /  1023.9hPa ENE 3.3mph /  5.3km/h 11mph /  17.7km/h 86% 0.00in /  0mm 0 W/m2
06:49 43.3 °F /  6.3 °C 39.4 °F /  4.1 °C 30.24in /  1023.9hPa East 3.6mph /  5.8km/h 12mph /  19.3km/h 86% 0.00in /  0mm 0 W/m2
06:54 43.3 °F /  6.3 °C 39.4 °F /  4.1 °C 30.24in /  1023.9hPa East 3.8mph /  6.1km/h 10mph /  16.1km/h 86% 0.00in /  0mm 0 W/m2
06:59 43.3 °F /  6.3 °C 39.4 °F /  4.1 °C 30.24in /  1023.9hPa ESE 4.3mph /  6.9km/h 10mph /  16.1km/h 86% 0.00in /  0mm 0 W/m2
07:04 43.3 °F /  6.3 °C 39.4 °F /  4.1 °C 30.25in /  1024.3hPa East 4.6mph /  7.4km/h 11mph /  17.7km/h 86% 0.00in /  0mm 5 W/m2
07:09 43.3 °F /  6.3 °C 39.4 °F /  4.1 °C 30.25in /  1024.3hPa ENE 5mph /  8km/h 13mph /  20.9km/h 86% 0.00in /  0mm 7 W/m2
07:14 43.3 °F /  6.3 °C 39.4 °F /  4.1 °C 30.25in /  1024.3hPa East 4.7mph /  7.6km/h 13mph /  20.9km/h 86% 0.00in /  0mm 9 W/m2
07:19 43.3 °F /  6.3 °C 39.4 °F /  4.1 °C 30.24in /  1023.9hPa East 5.2mph /  8.4km/h 12mph /  19.3km/h 86% 0.00in /  0mm 14 W/m2
07:24 43.3 °F /  6.3 °C 39.4 °F /  4.1 °C 30.24in /  1023.9hPa East 4.2mph /  6.8km/h 12mph /  19.3km/h 86% 0.00in /  0mm 16 W/m2
07:29 43.3 °F /  6.3 °C 39.4 °F /  4.1 °C 30.25in /  1024.3hPa ENE 4.4mph /  7.1km/h 11mph /  17.7km/h 86% 0.00in /  0mm 18 W/m2
07:34 43.3 °F /  6.3 °C 39.4 °F /  4.1 °C 30.25in /  1024.3hPa East 5.4mph /  8.7km/h 12mph /  19.3km/h 86% 0.00in /  0mm 18 W/m2
07:39 43.4 °F /  6.3 °C 39.5 °F /  4.2 °C 30.25in /  1024.3hPa ENE 2.6mph /  4.2km/h 12mph /  19.3km/h 86% 0.00in /  0mm 21 W/m2
07:44 43.5 °F /  6.4 °C 39.6 °F /  4.2 °C 30.25in /  1024.3hPa ENE 4.9mph /  7.9km/h 13mph /  20.9km/h 86% 0.00in /  0mm 26 W/m2
07:49 43.5 °F /  6.4 °C 39.4 °F /  4.1 °C 30.25in /  1024.3hPa ENE 5.9mph /  9.5km/h 14mph /  22.5km/h 85% 0.00in /  0mm 35 W/m2
07:54 43.5 °F /  6.4 °C 39.4 °F /  4.1 °C 30.25in /  1024.3hPa ENE 4.2mph /  6.8km/h 14mph /  22.5km/h 85% 0.00in /  0mm 40 W/m2
07:59 43.5 °F /  6.4 °C 39.4 °F /  4.1 °C 30.25in /  1024.3hPa ENE 4.3mph /  6.9km/h 10mph /  16.1km/h 85% 0.00in /  0mm 46 W/m2
08:04 43.5 °F /  6.4 °C 39.4 °F /  4.1 °C 30.26in /  1024.6hPa ENE 4.6mph /  7.4km/h 11mph /  17.7km/h 85% 0.00in /  0mm 49 W/m2
08:09 43.6 °F /  6.4 °C 39.5 °F /  4.2 °C 30.26in /  1024.6hPa ENE 2.9mph /  4.7km/h 10mph /  16.1km/h 85% 0.00in /  0mm 53 W/m2
08:14 43.7 °F /  6.5 °C 39.6 °F /  4.2 °C 30.26in /  1024.6hPa East 4.6mph /  7.4km/h 13mph /  20.9km/h 85% 0.00in /  0mm 60 W/m2
08:19 43.8 °F /  6.6 °C 39.7 °F /  4.3 °C 30.26in /  1024.6hPa East 3.7mph /  6km/h 11mph /  17.7km/h 85% 0.00in /  0mm 63 W/m2
08:24 43.9 °F /  6.6 °C 39.7 °F /  4.3 °C 30.26in /  1024.6hPa ENE 3.3mph /  5.3km/h 11mph /  17.7km/h 85% 0.00in /  0mm 67 W/m2
08:29 43.9 °F /  6.6 °C 39.6 °F /  4.2 °C 30.26in /  1024.6hPa East 2.6mph /  4.2km/h 9mph /  14.5km/h 84.8% 0.00in /  0mm 70 W/m2
08:34 44 °F /  6.7 °C 39.5 °F /  4.2 °C 30.26in /  1024.6hPa East 4.7mph /  7.6km/h 11mph /  17.7km/h 84.2% 0.00in /  0mm 70 W/m2
08:39 44.1 °F /  6.7 °C 39.7 °F /  4.3 °C 30.26in /  1024.6hPa East 4mph /  6.4km/h 10mph /  16.1km/h 84.3% 0.00in /  0mm 74 W/m2
08:44 44.1 °F /  6.7 °C 39.6 °F /  4.2 °C 30.26in /  1024.6hPa ENE 5.8mph /  9.3km/h 13mph /  20.9km/h 84% 0.00in /  0mm 84 W/m2
08:49 44.2 °F /  6.8 °C 39.7 °F /  4.3 °C 30.26in /  1024.6hPa ENE 4.6mph /  7.4km/h 17mph /  27.4km/h 84% 0.00in /  0mm 93 W/m2
08:54 44.2 °F /  6.8 °C 39.7 °F /  4.3 °C 30.26in /  1024.6hPa ENE 5.7mph /  9.2km/h 17mph /  27.4km/h 84% 0.00in /  0mm 107 W/m2
08:59 44.4 °F /  6.9 °C 39.9 °F /  4.4 °C 30.26in /  1024.6hPa ENE 5.7mph /  9.2km/h 17mph /  27.4km/h 84% 0.00in /  0mm 111 W/m2
09:04 44.5 °F /  6.9 °C 40 °F /  4.4 °C 30.26in /  1024.6hPa ENE 4.9mph /  7.9km/h 13mph /  20.9km/h 84% 0.00in /  0mm 105 W/m2
09:09 44.6 °F /  7 °C 39.7 °F /  4.3 °C 30.26in /  1024.6hPa ENE 5.7mph /  9.2km/h 13mph /  20.9km/h 83.1% 0.00in /  0mm 97 W/m2
09:14 44.7 °F /  7.1 °C 39.8 °F /  4.3 °C 30.26in /  1024.6hPa ENE 4.6mph /  7.4km/h 13mph /  20.9km/h 83% 0.00in /  0mm 111 W/m2
09:19 44.8 °F /  7.1 °C 39.9 °F /  4.4 °C 30.26in /  1024.6hPa ENE 5.7mph /  9.2km/h 14mph /  22.5km/h 83% 0.00in /  0mm 121 W/m2
09:24 45 °F /  7.2 °C 40.1 °F /  4.5 °C 30.26in /  1024.6hPa East 4.5mph /  7.2km/h 14mph /  22.5km/h 83% 0.00in /  0mm 125 W/m2
09:29 45 °F /  7.2 °C 40.1 °F /  4.5 °C 30.26in /  1024.6hPa East 3.9mph /  6.3km/h 11mph /  17.7km/h 83% 0.00in /  0mm 132 W/m2
09:34 45.1 °F /  7.3 °C 40.3 °F /  4.6 °C 30.26in /  1024.6hPa East 5.7mph /  9.2km/h 14mph /  22.5km/h 83% 0.00in /  0mm 134 W/m2
09:39 45.2 °F /  7.3 °C 40.4 °F /  4.7 °C 30.26in /  1024.6hPa East 4.8mph /  7.7km/h 11mph /  17.7km/h 83% 0.00in /  0mm 134 W/m2
09:44 45.3 °F /  7.4 °C 40.4 °F /  4.7 °C 30.26in /  1024.6hPa ENE 4.3mph /  6.9km/h 9mph /  14.5km/h 82.7% 0.00in /  0mm 134 W/m2
09:49 45.6 °F /  7.6 °C 40.6 °F /  4.8 °C 30.26in /  1024.6hPa NE 2.3mph /  3.7km/h 9mph /  14.5km/h 82.6% 0.00in /  0mm 132 W/m2
09:54 45.7 °F /  7.6 °C 40.6 °F /  4.8 °C 30.26in /  1024.6hPa ENE 5.9mph /  9.5km/h 14mph /  22.5km/h 82.4% 0.00in /  0mm 132 W/m2
09:59 45.9 °F /  7.7 °C 40.6 °F /  4.8 °C 30.26in /  1024.6hPa ESE 3.7mph /  6km/h 10mph /  16.1km/h 82% 0.00in /  0mm 141 W/m2
10:04 45.9 °F /  7.7 °C 40.6 °F /  4.8 °C 30.26in /  1024.6hPa ESE 3mph /  4.8km/h 11mph /  17.7km/h 82% 0.00in /  0mm 148 W/m2
10:09 46 °F /  7.8 °C 40.8 °F /  4.9 °C 30.26in /  1024.6hPa ESE 3.3mph /  5.3km/h 10mph /  16.1km/h 82% 0.00in /  0mm 155 W/m2
10:14 46.3 °F /  7.9 °C 41.1 °F /  5.1 °C 30.25in /  1024.3hPa East 4.7mph /  7.6km/h 13mph /  20.9km/h 82% 0.00in /  0mm 169 W/m2
10:19 46.6 °F /  8.1 °C 41.4 °F /  5.2 °C 30.26in /  1024.6hPa East 3.3mph /  5.3km/h 13mph /  20.9km/h 82% 0.00in /  0mm 178 W/m2
10:24 46.7 °F /  8.2 °C 41.5 °F /  5.3 °C 30.26in /  1024.6hPa ENE 5mph /  8km/h 11mph /  17.7km/h 82% 0.00in /  0mm 176 W/m2
10:29 46.9 °F /  8.3 °C 41.6 °F /  5.3 °C 30.26in /  1024.6hPa East 4mph /  6.4km/h 11mph /  17.7km/h 82% 0.00in /  0mm 169 W/m2
10:34 46.9 °F /  8.3 °C 41.4 °F /  5.2 °C 30.26in /  1024.6hPa SE 4.2mph /  6.8km/h 12mph /  19.3km/h 81.1% 0.00in /  0mm 162 W/m2
10:39 47 °F /  8.3 °C 41.5 °F /  5.3 °C 30.25in /  1024.3hPa ESE 6mph /  9.7km/h 14mph /  22.5km/h 81% 0.00in /  0mm 162 W/m2
10:44 47.1 °F /  8.4 °C 41.5 °F /  5.3 °C 30.25in /  1024.3hPa East 3.1mph /  5km/h 11mph /  17.7km/h 81% 0.00in /  0mm 167 W/m2
10:49 47.3 °F /  8.5 °C 41.7 °F /  5.4 °C 30.25in /  1024.3hPa East 5.7mph /  9.2km/h 13mph /  20.9km/h 81% 0.00in /  0mm 171 W/m2
10:54 47.5 °F /  8.6 °C 41.9 °F /  5.5 °C 30.26in /  1024.6hPa East 5.3mph /  8.5km/h 14mph /  22.5km/h 81% 0.00in /  0mm 167 W/m2
10:59 47.5 °F /  8.6 °C 41.9 °F /  5.5 °C 30.26in /  1024.6hPa ESE 6.2mph /  10km/h 12mph /  19.3km/h 81% 0.00in /  0mm 148 W/m2
11:04 47.6 °F /  8.7 °C 41.7 °F /  5.4 °C 30.25in /  1024.3hPa East 5.9mph /  9.5km/h 12mph /  19.3km/h 80.1% 0.00in /  0mm 142 W/m2
11:09 47.7 °F /  8.7 °C 41.7 °F /  5.4 °C 30.25in /  1024.3hPa ENE 2.9mph /  4.7km/h 10mph /  16.1km/h 80% 0.00in /  0mm 137 W/m2
11:14 47.7 °F /  8.7 °C 41.8 °F /  5.4 °C 30.25in /  1024.3hPa East 3.2mph /  5.1km/h 16mph /  25.7km/h 80% 0.00in /  0mm 149 W/m2
11:19 47.7 °F /  8.7 °C 41.7 °F /  5.4 °C 30.25in /  1024.3hPa SE 2mph /  3.2km/h 7mph /  11.3km/h 80% 0.00in /  0mm 156 W/m2
11:24 47.8 °F /  8.8 °C 41.9 °F /  5.5 °C 30.25in /  1024.3hPa East 4.7mph /  7.6km/h 13mph /  20.9km/h 80% 0.00in /  0mm 165 W/m2
11:29 47.8 °F /  8.8 °C 41.9 °F /  5.5 °C 30.25in /  1024.3hPa East 3.9mph /  6.3km/h 13mph /  20.9km/h 80% 0.00in /  0mm 167 W/m2
11:34 48 °F /  8.9 °C 42.1 °F /  5.6 °C 30.25in /  1024.3hPa East 4.9mph /  7.9km/h 12mph /  19.3km/h 80% 0.00in /  0mm 169 W/m2
11:39 48 °F /  8.9 °C 42.1 °F /  5.6 °C 30.25in /  1024.3hPa East 5.9mph /  9.5km/h 14mph /  22.5km/h 80% 0.00in /  0mm 171 W/m2
11:44 48 °F /  8.9 °C 42.1 °F /  5.6 °C 30.24in /  1023.9hPa ESE 6mph /  9.7km/h 16mph /  25.7km/h 80% 0.00in /  0mm 176 W/m2
11:49 48.3 °F /  9.1 °C 42.3 °F /  5.7 °C 30.24in /  1023.9hPa East 4.6mph /  7.4km/h 16mph /  25.7km/h 80% 0.00in /  0mm 174 W/m2
11:54 48.5 °F /  9.2 °C 42.4 °F /  5.8 °C 30.24in /  1023.9hPa East 3.8mph /  6.1km/h 11mph /  17.7km/h 79.6% 0.00in /  0mm 172 W/m2
11:59 48.6 °F /  9.2 °C 42.6 °F /  5.9 °C 30.24in /  1023.9hPa East 4.4mph /  7.1km/h 11mph /  17.7km/h 80% 0.00in /  0mm 181 W/m2
12:04 48.6 °F /  9.2 °C 42.4 °F /  5.8 °C 30.24in /  1023.9hPa ENE 4.1mph /  6.6km/h 11mph /  17.7km/h 79% 0.00in /  0mm 183 W/m2
12:09 48.7 °F /  9.3 °C 42.4 °F /  5.8 °C 30.24in /  1023.9hPa East 4.5mph /  7.2km/h 11mph /  17.7km/h 79% 0.00in /  0mm 183 W/m2
12:14 48.9 °F /  9.4 °C 42.6 °F /  5.9 °C 30.24in /  1023.9hPa East 5.7mph /  9.2km/h 14mph /  22.5km/h 79% 0.00in /  0mm 183 W/m2
12:19 48.9 °F /  9.4 °C 42.6 °F /  5.9 °C 30.24in /  1023.9hPa ESE 4.3mph /  6.9km/h 14mph /  22.5km/h 79% 0.00in /  0mm 171 W/m2
12:24 49.2 °F /  9.6 °C 42.9 °F /  6.1 °C 30.24in /  1023.9hPa East 4.8mph /  7.7km/h 10mph /  16.1km/h 79% 0.00in /  0mm 148 W/m2
12:29 49.3 °F /  9.6 °C 43 °F /  6.1 °C 30.24in /  1023.9hPa East 5.6mph /  9km/h 11mph /  17.7km/h 79% 0.00in /  0mm 141 W/m2
12:34 49.3 °F /  9.6 °C 43 °F /  6.1 °C 30.24in /  1023.9hPa East 3.5mph /  5.6km/h 11mph /  17.7km/h 79% 0.00in /  0mm 141 W/m2
12:39 49.4 °F /  9.7 °C 43.1 °F /  6.2 °C 30.24in /  1023.9hPa East 3.1mph /  5km/h 14mph /  22.5km/h 79% 0.00in /  0mm 135 W/m2
12:44 49.5 °F /  9.7 °C 43.2 °F /  6.2 °C 30.24in /  1023.9hPa East 4.6mph /  7.4km/h 14mph /  22.5km/h 79% 0.00in /  0mm 132 W/m2
12:49 49.5 °F /  9.7 °C 43.2 °F /  6.2 °C 30.24in /  1023.9hPa ESE 5.4mph /  8.7km/h 15mph /  24.1km/h 79% 0.00in /  0mm 134 W/m2
12:54 49.5 °F /  9.7 °C 43.2 °F /  6.2 °C 30.24in /  1023.9hPa East 3.6mph /  5.8km/h 15mph /  24.1km/h 79% 0.00in /  0mm 139 W/m2
12:59 49.5 °F /  9.7 °C 43.2 °F /  6.2 °C 30.24in /  1023.9hPa East 4.2mph /  6.8km/h 13mph /  20.9km/h 79% 0.00in /  0mm 153 W/m2
13:04 49.6 °F /  9.8 °C 43.3 °F /  6.3 °C 30.24in /  1023.9hPa East 5.9mph /  9.5km/h 14mph /  22.5km/h 79% 0.00in /  0mm 151 W/m2
13:09 49.7 °F /  9.8 °C 43.4 °F /  6.3 °C 30.24in /  1023.9hPa East 3.5mph /  5.6km/h 14mph /  22.5km/h 79% 0.00in /  0mm 134 W/m2
13:14 49.8 °F /  9.9 °C 43.5 °F /  6.4 °C 30.24in /  1023.9hPa East 4.3mph /  6.9km/h 11mph /  17.7km/h 79% 0.00in /  0mm 134 W/m2
13:19 49.8 °F /  9.9 °C 43.5 °F /  6.4 °C 30.24in /  1023.9hPa East 4.9mph /  7.9km/h 14mph /  22.5km/h 79% 0.00in /  0mm 144 W/m2
13:24 49.9 °F /  9.9 °C 43.6 °F /  6.4 °C 30.24in /  1023.9hPa East 3.8mph /  6.1km/h 11mph /  17.7km/h 79% 0.00in /  0mm 142 W/m2
13:29 50.1 °F /  10.1 °C 43.8 °F /  6.6 °C 30.24in /  1023.9hPa ENE 5.5mph /  8.9km/h 11mph /  17.7km/h 79% 0.00in /  0mm 160 W/m2
13:34 50.2 °F /  10.1 °C 43.9 °F /  6.6 °C 30.24in /  1023.9hPa East 3.3mph /  5.3km/h 10mph /  16.1km/h 79% 0.00in /  0mm 163 W/m2
13:39 50.3 °F /  10.2 °C 44 °F /  6.7 °C 30.24in /  1023.9hPa East 3.9mph /  6.3km/h 10mph /  16.1km/h 79% 0.00in /  0mm 165 W/m2
13:44 50.4 °F /  10.2 °C 44 °F /  6.7 °C 30.24in /  1023.9hPa East 4.5mph /  7.2km/h 14mph /  22.5km/h 78.8% 0.00in /  0mm 165 W/m2
13:49 50.5 °F /  10.3 °C 43.9 °F /  6.6 °C 30.24in /  1023.9hPa East 5.8mph /  9.3km/h 11mph /  17.7km/h 78.2% 0.00in /  0mm 156 W/m2
13:54 50.5 °F /  10.3 °C 43.9 °F /  6.6 °C 30.24in /  1023.9hPa East 3.7mph /  6km/h 12mph /  19.3km/h 78% 0.00in /  0mm 142 W/m2
13:59 50.5 °F /  10.3 °C 43.9 °F /  6.6 °C 30.24in /  1023.9hPa East 4mph /  6.4km/h 10mph /  16.1km/h 78% 0.00in /  0mm 132 W/m2
14:04 50.6 °F /  10.3 °C 44 °F /  6.7 °C 30.24in /  1023.9hPa East 4.3mph /  6.9km/h 11mph /  17.7km/h 78% 0.00in /  0mm 132 W/m2
14:09 50.7 °F /  10.4 °C 44.1 °F /  6.7 °C 30.24in /  1023.9hPa East 3mph /  4.8km/h 11mph /  17.7km/h 78% 0.00in /  0mm 132 W/m2
14:14 50.7 °F /  10.4 °C 44.1 °F /  6.7 °C 30.24in /  1023.9hPa East 4.5mph /  7.2km/h 10mph /  16.1km/h 78% 0.00in /  0mm 111 W/m2
14:19 50.7 °F /  10.4 °C 44.1 °F /  6.7 °C 30.24in /  1023.9hPa East 3.9mph /  6.3km/h 10mph /  16.1km/h 78% 0.00in /  0mm 69 W/m2
14:24 50.5 °F /  10.3 °C 43.9 °F /  6.6 °C 30.24in /  1023.9hPa ENE 3.1mph /  5km/h 9mph /  14.5km/h 78% 0.00in /  0mm 56 W/m2
14:29 50.5 °F /  10.3 °C 43.9 °F /  6.6 °C 30.24in /  1023.9hPa East 2.8mph /  4.5km/h 8mph /  12.9km/h 78% 0.00in /  0mm 44 W/m2
14:34 50.5 °F /  10.3 °C 43.9 °F /  6.6 °C 30.24in /  1023.9hPa ENE 3.8mph /  6.1km/h 13mph /  20.9km/h 78% 0.00in /  0mm 60 W/m2
14:39 50.5 °F /  10.3 °C 43.9 °F /  6.6 °C 30.24in /  1023.9hPa ENE 3.7mph /  6km/h 10mph /  16.1km/h 78% 0.00in /  0mm 90 W/m2
14:44 50.6 °F /  10.3 °C 44 °F /  6.7 °C 30.24in /  1023.9hPa East 4.2mph /  6.8km/h 11mph /  17.7km/h 78% 0.00in /  0mm 88 W/m2
14:49 50.7 °F /  10.4 °C 44.1 °F /  6.7 °C 30.23in /  1023.6hPa ENE 1.9mph /  3.1km/h 11mph /  17.7km/h 78% 0.00in /  0mm 83 W/m2
14:54 50.7 °F /  10.4 °C 44.1 °F /  6.7 °C 30.23in /  1023.6hPa East 2.5mph /  4km/h 8mph /  12.9km/h 78% 0.00in /  0mm 72 W/m2
14:59 50.7 °F /  10.4 °C 44.1 °F /  6.7 °C 30.23in /  1023.6hPa ESE 4.3mph /  6.9km/h 12mph /  19.3km/h 78% 0.00in /  0mm 58 W/m2
15:04 50.7 °F /  10.4 °C 44.1 °F /  6.7 °C 30.23in /  1023.6hPa ENE 4.1mph /  6.6km/h 12mph /  19.3km/h 78% 0.00in /  0mm 60 W/m2
15:09 50.7 °F /  10.4 °C 44.2 °F /  6.8 °C 30.23in /  1023.6hPa ESE 3.9mph /  6.3km/h 9mph /  14.5km/h 78.2% 0.00in /  0mm 62 W/m2
15:14 50.7 °F /  10.4 °C 44.4 °F /  6.9 °C 30.23in /  1023.6hPa East 4.1mph /  6.6km/h 12mph /  19.3km/h 79% 0.00in /  0mm 70 W/m2
15:19 50.7 °F /  10.4 °C 44.1 °F /  6.7 °C 30.23in /  1023.6hPa ESE 4.6mph /  7.4km/h 12mph /  19.3km/h 78.2% 0.00in /  0mm 72 W/m2
15:24 50.7 °F /  10.4 °C 44.1 °F /  6.7 °C 30.23in /  1023.6hPa East 4.7mph /  7.6km/h 12mph /  19.3km/h 78% 0.00in /  0mm 74 W/m2
15:29 50.9 °F /  10.5 °C 44.2 °F /  6.8 °C 30.23in /  1023.6hPa East 3.7mph /  6km/h 12mph /  19.3km/h 78% 0.00in /  0mm 69 W/m2
15:34 51 °F /  10.6 °C 44.3 °F /  6.8 °C 30.23in /  1023.6hPa East 2.9mph /  4.7km/h 11mph /  17.7km/h 78% 0.00in /  0mm 60 W/m2
15:39 51 °F /  10.6 °C 44.3 °F /  6.8 °C 30.23in /  1023.6hPa East 2.6mph /  4.2km/h 12mph /  19.3km/h 78% 0.00in /  0mm 53 W/m2
15:44 50.8 °F /  10.4 °C 44.2 °F /  6.8 °C 30.23in /  1023.6hPa East 3.6mph /  5.8km/h 10mph /  16.1km/h 78% 0.00in /  0mm 51 W/m2
15:49 50.7 °F /  10.4 °C 44.1 °F /  6.7 °C 30.23in /  1023.6hPa East 3.3mph /  5.3km/h 12mph /  19.3km/h 78% 0.00in /  0mm 53 W/m2
15:54 50.6 °F /  10.3 °C 44 °F /  6.7 °C 30.23in /  1023.6hPa East 2mph /  3.2km/h 8mph /  12.9km/h 78% 0.00in /  0mm 53 W/m2
15:59 50.5 °F /  10.3 °C 43.9 °F /  6.6 °C 30.23in /  1023.6hPa ESE 2.9mph /  4.7km/h 12mph /  19.3km/h 78% 0.00in /  0mm 47 W/m2
16:04 50.4 °F /  10.2 °C 44 °F /  6.7 °C 30.23in /  1023.6hPa East 3.5mph /  5.6km/h 8mph /  12.9km/h 78.4% 0.00in /  0mm 40 W/m2
16:09 50.4 °F /  10.2 °C 44.1 °F /  6.7 °C 30.23in /  1023.6hPa ENE 3.6mph /  5.8km/h 10mph /  16.1km/h 79% 0.00in /  0mm 32 W/m2
16:14 50.4 °F /  10.2 °C 44.1 °F /  6.7 °C 30.23in /  1023.6hPa East 2.6mph /  4.2km/h 8mph /  12.9km/h 79% 0.00in /  0mm 25 W/m2
16:19 50.2 °F /  10.1 °C 43.9 °F /  6.6 °C 30.23in /  1023.6hPa East 3.2mph /  5.1km/h 9mph /  14.5km/h 79% 0.00in /  0mm 21 W/m2
16:24 50.1 °F /  10.1 °C 43.8 °F /  6.6 °C 30.23in /  1023.6hPa ESE 2.7mph /  4.3km/h 9mph /  14.5km/h 79% 0.00in /  0mm 18 W/m2
16:29 50 °F /  10 °C 43.7 °F /  6.5 °C 30.23in /  1023.6hPa NE 3.4mph /  5.5km/h 14mph /  22.5km/h 79% 0.00in /  0mm 14 W/m2
16:34 49.9 °F /  9.9 °C 43.6 °F /  6.4 °C 30.23in /  1023.6hPa East 5.3mph /  8.5km/h 11mph /  17.7km/h 79% 0.00in /  0mm 11 W/m2
16:39 49.8 °F /  9.9 °C 43.5 °F /  6.4 °C 30.24in /  1023.9hPa ENE 3.9mph /  6.3km/h 11mph /  17.7km/h 79% 0.00in /  0mm 7 W/m2
16:44 49.8 °F /  9.9 °C 43.5 °F /  6.4 °C 30.24in /  1023.9hPa ENE 3.9mph /  6.3km/h 10mph /  16.1km/h 79% 0.00in /  0mm 5 W/m2
16:49 49.8 °F /  9.9 °C 43.8 °F /  6.6 °C 30.24in /  1023.9hPa ENE 2.9mph /  4.7km/h 8mph /  12.9km/h 79.9% 0.00in /  0mm 0 W/m2
16:54 49.7 °F /  9.8 °C 43.8 °F /  6.6 °C 30.24in /  1023.9hPa East 4.9mph /  7.9km/h 9mph /  14.5km/h 80% 0.00in /  0mm 0 W/m2
16:59 49.6 °F /  9.8 °C 43.7 °F /  6.5 °C 30.24in /  1023.9hPa East 3.8mph /  6.1km/h 12mph /  19.3km/h 80% 0.00in /  0mm 0 W/m2
17:04 49.6 °F /  9.8 °C 43.7 °F /  6.5 °C 30.24in /  1023.9hPa ESE 2.7mph /  4.3km/h 10mph /  16.1km/h 80% 0.00in /  0mm 0 W/m2
17:09 49.6 °F /  9.8 °C 43.7 °F /  6.5 °C 30.24in /  1023.9hPa ESE 4.9mph /  7.9km/h 14mph /  22.5km/h 80% 0.00in /  0mm 0 W/m2
17:14 49.6 °F /  9.8 °C 43.7 °F /  6.5 °C 30.24in /  1023.9hPa ESE 4.6mph /  7.4km/h 14mph /  22.5km/h 80% 0.00in /  0mm 0 W/m2
17:19 49.6 °F /  9.8 °C 43.7 °F /  6.5 °C 30.24in /  1023.9hPa East 4mph /  6.4km/h 12mph /  19.3km/h 80% 0.00in /  0mm 0 W/m2
17:24 49.6 °F /  9.8 °C 43.7 °F /  6.5 °C 30.24in /  1023.9hPa East 2.3mph /  3.7km/h 10mph /  16.1km/h 80% 0.00in /  0mm 0 W/m2
17:29 49.5 °F /  9.7 °C 43.5 °F /  6.4 °C 30.24in /  1023.9hPa East 1.9mph /  3.1km/h 9mph /  14.5km/h 80% 0.00in /  0mm 0 W/m2
17:34 49.5 °F /  9.7 °C 43.5 °F /  6.4 °C 30.24in /  1023.9hPa ENE 2.7mph /  4.3km/h 10mph /  16.1km/h 80% 0.00in /  0mm 0 W/m2
17:39 49.5 °F /  9.7 °C 43.5 °F /  6.4 °C 30.24in /  1023.9hPa East 2mph /  3.2km/h 10mph /  16.1km/h 80% 0.00in /  0mm 0 W/m2
17:44 49.5 °F /  9.7 °C 43.5 °F /  6.4 °C 30.24in /  1023.9hPa East 3.8mph /  6.1km/h 9mph /  14.5km/h 80% 0.00in /  0mm 0 W/m2
17:49 49.5 °F /  9.7 °C 43.5 °F /  6.4 °C 30.24in /  1023.9hPa East 2.6mph /  4.2km/h 9mph /  14.5km/h 80% 0.00in /  0mm 0 W/m2
17:54 49.5 °F /  9.7 °C 43.5 °F /  6.4 °C 30.24in /  1023.9hPa East 3.9mph /  6.3km/h 9mph /  14.5km/h 80% 0.00in /  0mm 0 W/m2
17:59 49.5 °F /  9.7 °C 43.6 °F /  6.4 °C 30.24in /  1023.9hPa ENE 3.6mph /  5.8km/h 10mph /  16.1km/h 80.2% 0.00in /  0mm 0 W/m2
18:04 49.5 °F /  9.7 °C 43.9 °F /  6.6 °C 30.24in /  1023.9hPa East 2.4mph /  3.9km/h 10mph /  16.1km/h 81% 0.00in /  0mm 0 W/m2
18:09 49.5 °F /  9.7 °C 43.9 °F /  6.6 °C 30.24in /  1023.9hPa ESE 2.1mph /  3.4km/h 7mph /  11.3km/h 81% 0.00in /  0mm 0 W/m2
18:14 49.5 °F /  9.7 °C 43.9 °F /  6.6 °C 30.24in /  1023.9hPa ESE 3.5mph /  5.6km/h 9mph /  14.5km/h 81% 0.00in /  0mm 0 W/m2
18:19 49.4 °F /  9.7 °C 43.8 °F /  6.6 °C 30.24in /  1023.9hPa East 1.3mph /  2.1km/h 9mph /  14.5km/h 81% 0.00in /  0mm 0 W/m2
18:24 49.3 °F /  9.6 °C 43.7 °F /  6.5 °C 30.24in /  1023.9hPa ESE 2.5mph /  4km/h 8mph /  12.9km/h 81% 0.00in /  0mm 0 W/m2
18:29 49.3 °F /  9.6 °C 43.7 °F /  6.5 °C 30.24in /  1023.9hPa ESE 3.3mph /  5.3km/h 11mph /  17.7km/h 81% 0.00in /  0mm 0 W/m2
18:34 49.3 °F /  9.6 °C 43.7 °F /  6.5 °C 30.24in /  1023.9hPa East 3mph /  4.8km/h 7mph /  11.3km/h 81% 0.00in /  0mm 0 W/m2
18:39 49.3 °F /  9.6 °C 43.7 °F /  6.5 °C 30.24in /  1023.9hPa ESE 2.5mph /  4km/h 7mph /  11.3km/h 81% 0.00in /  0mm 0 W/m2
18:44 49.1 °F /  9.5 °C 43.5 °F /  6.4 °C 30.24in /  1023.9hPa ESE 4mph /  6.4km/h 13mph /  20.9km/h 81% 0.00in /  0mm 0 W/m2
18:49 49.1 °F /  9.5 °C 43.5 °F /  6.4 °C 30.24in /  1023.9hPa East 3.4mph /  5.5km/h 12mph /  19.3km/h 81% 0.00in /  0mm 0 W/m2
18:54 49.1 °F /  9.5 °C 43.5 °F /  6.4 °C 30.24in /  1023.9hPa East 3.4mph /  5.5km/h 10mph /  16.1km/h 81% 0.00in /  0mm 0 W/m2
18:59 49.1 °F /  9.5 °C 43.5 °F /  6.4 °C 30.25in /  1024.3hPa East 2.6mph /  4.2km/h 10mph /  16.1km/h 81% 0.00in /  0mm 0 W/m2
19:04 49 °F /  9.4 °C 43.4 °F /  6.3 °C 30.24in /  1023.9hPa East 2.9mph /  4.7km/h 9mph /  14.5km/h 81% 0.00in /  0mm 0 W/m2
19:09 48.9 °F /  9.4 °C 43.3 °F /  6.3 °C 30.24in /  1023.9hPa East 3.2mph /  5.1km/h 13mph /  20.9km/h 81% 0.00in /  0mm 0 W/m2
19:14 48.9 °F /  9.4 °C 43.3 °F /  6.3 °C 30.25in /  1024.3hPa ESE 3.6mph /  5.8km/h 11mph /  17.7km/h 81% 0.00in /  0mm 0 W/m2
19:19 48.9 °F /  9.4 °C 43.3 °F /  6.3 °C 30.25in /  1024.3hPa East 2.6mph /  4.2km/h 11mph /  17.7km/h 81% 0.00in /  0mm 0 W/m2
19:24 48.9 °F /  9.4 °C 43.3 °F /  6.3 °C 30.25in /  1024.3hPa East 2.9mph /  4.7km/h 9mph /  14.5km/h 81% 0.00in /  0mm 0 W/m2
19:29 48.9 °F /  9.4 °C 43.3 °F /  6.3 °C 30.25in /  1024.3hPa ESE 3.8mph /  6.1km/h 11mph /  17.7km/h 81% 0.00in /  0mm 0 W/m2
19:34 48.9 °F /  9.4 °C 43.3 °F /  6.3 °C 30.25in /  1024.3hPa East 4.8mph /  7.7km/h 11mph /  17.7km/h 81% 0.00in /  0mm 0 W/m2
19:39 48.8 °F /  9.3 °C 43.3 °F /  6.3 °C 30.25in /  1024.3hPa ESE 2.1mph /  3.4km/h 11mph /  17.7km/h 81% 0.00in /  0mm 0 W/m2
19:44 48.7 °F /  9.3 °C 43.1 °F /  6.2 °C 30.25in /  1024.3hPa East 2.5mph /  4km/h 10mph /  16.1km/h 80.7% 0.00in /  0mm 0 W/m2
19:49 48.7 °F /  9.3 °C 42.9 °F /  6.1 °C 30.25in /  1024.3hPa ESE 4mph /  6.4km/h 10mph /  16.1km/h 80.3% 0.00in /  0mm 0 W/m2
19:54 48.7 °F /  9.3 °C 42.9 °F /  6.1 °C 30.25in /  1024.3hPa ESE 4.2mph /  6.8km/h 10mph /  16.1km/h 80.2% 0.00in /  0mm 0 W/m2
19:59 48.7 °F /  9.3 °C 42.8 °F /  6 °C 30.25in /  1024.3hPa ESE 3.5mph /  5.6km/h 10mph /  16.1km/h 80% 0.00in /  0mm 0 W/m2
20:04 48.7 °F /  9.3 °C 42.9 °F /  6.1 °C 30.26in /  1024.6hPa ESE 3.9mph /  6.3km/h 11mph /  17.7km/h 80.3% 0.00in /  0mm 0 W/m2
20:09 48.7 °F /  9.3 °C 42.8 °F /  6 °C 30.26in /  1024.6hPa East 3.7mph /  6km/h 7mph /  11.3km/h 80% 0.00in /  0mm 0 W/m2
20:14 48.7 °F /  9.3 °C 42.8 °F /  6 °C 30.26in /  1024.6hPa East 2.7mph /  4.3km/h 9mph /  14.5km/h 80% 0.00in /  0mm 0 W/m2
20:19 48.7 °F /  9.3 °C 43.1 °F /  6.2 °C 30.26in /  1024.6hPa East 3.8mph /  6.1km/h 11mph /  17.7km/h 80.7% 0.00in /  0mm 0 W/m2
20:24 48.7 °F /  9.3 °C 42.9 °F /  6.1 °C 30.26in /  1024.6hPa East 4mph /  6.4km/h 10mph /  16.1km/h 80.3% 0.00in /  0mm 0 W/m2
20:29 48.7 °F /  9.3 °C 43.1 °F /  6.2 °C 30.26in /  1024.6hPa East 2.1mph /  3.4km/h 10mph /  16.1km/h 80.9% 0.00in /  0mm 0 W/m2
20:34 48.6 °F /  9.2 °C 42.6 °F /  5.9 °C 30.26in /  1024.6hPa East 3.2mph /  5.1km/h 9mph /  14.5km/h 80% 0.00in /  0mm 0 W/m2
20:39 48.6 °F /  9.2 °C 42.7 °F /  5.9 °C 30.26in /  1024.6hPa East 2.3mph /  3.7km/h 10mph /  16.1km/h 80.2% 0.00in /  0mm 0 W/m2
20:44 48.6 °F /  9.2 °C 42.6 °F /  5.9 °C 30.26in /  1024.6hPa ENE 4.1mph /  6.6km/h 17mph /  27.4km/h 80% 0.00in /  0mm 0 W/m2
20:49 48.5 °F /  9.2 °C 42.5 °F /  5.8 °C 30.26in /  1024.6hPa East 2.8mph /  4.5km/h 9mph /  14.5km/h 80% 0.00in /  0mm 0 W/m2
20:54 48.4 °F /  9.1 °C 42.4 °F /  5.8 °C 30.26in /  1024.6hPa East 4.5mph /  7.2km/h 15mph /  24.1km/h 80% 0.00in /  0mm 0 W/m2
20:59 48.4 °F /  9.1 °C 42.4 °F /  5.8 °C 30.26in /  1024.6hPa East 3mph /  4.8km/h 15mph /  24.1km/h 80% 0.00in /  0mm 0 W/m2
21:04 48.4 °F /  9.1 °C 42.4 °F /  5.8 °C 30.26in /  1024.6hPa East 2.9mph /  4.7km/h 10mph /  16.1km/h 80% 0.00in /  0mm 0 W/m2
21:09 48.4 °F /  9.1 °C 42.4 °F /  5.8 °C 30.26in /  1024.6hPa East 4.6mph /  7.4km/h 14mph /  22.5km/h 80% 0.00in /  0mm 0 W/m2
21:14 48.2 °F /  9 °C 42.3 °F /  5.7 °C 30.26in /  1024.6hPa East 3.6mph /  5.8km/h 11mph /  17.7km/h 80% 0.00in /  0mm 0 W/m2
21:19 48.2 °F /  9 °C 42.3 °F /  5.7 °C 30.25in /  1024.3hPa East 4.2mph /  6.8km/h 13mph /  20.9km/h 80% 0.00in /  0mm 0 W/m2
21:24 48.2 °F /  9 °C 42.3 °F /  5.7 °C 30.25in /  1024.3hPa East 4mph /  6.4km/h 13mph /  20.9km/h 80% 0.00in /  0mm 0 W/m2
21:29 48 °F /  8.9 °C 42.2 °F /  5.7 °C 30.25in /  1024.3hPa East 3.9mph /  6.3km/h 9mph /  14.5km/h 80.2% 0.00in /  0mm 0 W/m2
21:34 48 °F /  8.9 °C 42.3 °F /  5.7 °C 30.25in /  1024.3hPa East 3.2mph /  5.1km/h 11mph /  17.7km/h 80.5% 0.00in /  0mm 0 W/m2
21:39 48 °F /  8.9 °C 42.4 °F /  5.8 °C 30.26in /  1024.6hPa East 4mph /  6.4km/h 8mph /  12.9km/h 81% 0.00in /  0mm 0 W/m2
21:44 48 °F /  8.9 °C 42.4 °F /  5.8 °C 30.26in /  1024.6hPa East 4.2mph /  6.8km/h 10mph /  16.1km/h 81% 0.00in /  0mm 0 W/m2
21:49 48 °F /  8.9 °C 42.4 °F /  5.8 °C 30.26in /  1024.6hPa East 4.2mph /  6.8km/h 10mph /  16.1km/h 81% 0.00in /  0mm 0 W/m2
21:54 47.9 °F /  8.8 °C 42.4 °F /  5.8 °C 30.26in /  1024.6hPa East 3.7mph /  6km/h 10mph /  16.1km/h 81% 0.00in /  0mm 0 W/m2
21:59 47.9 °F /  8.8 °C 42.3 °F /  5.7 °C 30.26in /  1024.6hPa East 2.7mph /  4.3km/h 10mph /  16.1km/h 81% 0.00in /  0mm 0 W/m2
22:04 47.8 °F /  8.8 °C 42.3 °F /  5.7 °C 30.26in /  1024.6hPa East 2.5mph /  4km/h 8mph /  12.9km/h 81% 0.00in /  0mm 0 W/m2
22:09 47.8 °F /  8.8 °C 42.3 °F /  5.7 °C 30.26in /  1024.6hPa East 2.5mph /  4km/h 10mph /  16.1km/h 81% 0.00in /  0mm 0 W/m2
22:14 47.8 °F /  8.8 °C 42.3 °F /  5.7 °C 30.26in /  1024.6hPa ESE 4.5mph /  7.2km/h 11mph /  17.7km/h 81% 0.00in /  0mm 0 W/m2
22:19 47.7 °F /  8.7 °C 42.1 °F /  5.6 °C 30.25in /  1024.3hPa East 4.2mph /  6.8km/h 13mph /  20.9km/h 81% 0.00in /  0mm 0 W/m2
22:24 47.7 °F /  8.7 °C 42.1 °F /  5.6 °C 30.25in /  1024.3hPa ENE 2.5mph /  4km/h 9mph /  14.5km/h 81% 0.00in /  0mm 0 W/m2
22:29 47.6 °F /  8.7 °C 42.1 °F /  5.6 °C 30.25in /  1024.3hPa East 3.3mph /  5.3km/h 10mph /  16.1km/h 81.2% 0.00in /  0mm 0 W/m2
22:34 47.5 °F /  8.6 °C 42.1 °F /  5.6 °C 30.25in /  1024.3hPa ESE 3.3mph /  5.3km/h 9mph /  14.5km/h 81.3% 0.00in /  0mm 0 W/m2
22:39 47.5 °F /  8.6 °C 42.3 °F /  5.7 °C 30.25in /  1024.3hPa East 3mph /  4.8km/h 9mph /  14.5km/h 82% 0.00in /  0mm 0 W/m2
22:44 47.5 °F /  8.6 °C 42.3 °F /  5.7 °C 30.26in /  1024.6hPa ENE 2.5mph /  4km/h 9mph /  14.5km/h 82% 0.00in /  0mm 0 W/m2
22:49 47.5 °F /  8.6 °C 42.3 °F /  5.7 °C 30.25in /  1024.3hPa East 4.1mph /  6.6km/h 9mph /  14.5km/h 82% 0.00in /  0mm 0 W/m2
22:54 47.5 °F /  8.6 °C 42.3 °F /  5.7 °C 30.25in /  1024.3hPa East 3.7mph /  6km/h 8mph /  12.9km/h 82% 0.00in /  0mm 0 W/m2
22:59 47.4 °F /  8.6 °C 42.2 °F /  5.7 °C 30.25in /  1024.3hPa East 3.7mph /  6km/h 10mph /  16.1km/h 82% 0.00in /  0mm 0 W/m2
23:04 47.3 °F /  8.5 °C 42.1 °F /  5.6 °C 30.25in /  1024.3hPa ENE 3.9mph /  6.3km/h 10mph /  16.1km/h 82% 0.00in /  0mm 0 W/m2
23:09 47.3 °F /  8.5 °C 42.1 °F /  5.6 °C 30.25in /  1024.3hPa East 4.1mph /  6.6km/h 11mph /  17.7km/h 82.2% 0.00in /  0mm 0 W/m2
23:14 47.2 °F /  8.4 °C 42.3 °F /  5.7 °C 30.25in /  1024.3hPa East 4.3mph /  6.9km/h 11mph /  17.7km/h 82.8% 0.00in /  0mm 0 W/m2
23:19 47.2 °F /  8.4 °C 42.3 °F /  5.7 °C 30.25in /  1024.3hPa ENE 4.1mph /  6.6km/h 10mph /  16.1km/h 82.8% 0.00in /  0mm 0 W/m2
23:24 47.2 °F /  8.4 °C 42.3 °F /  5.7 °C 30.25in /  1024.3hPa ENE 6.1mph /  9.8km/h 14mph /  22.5km/h 83% 0.00in /  0mm 0 W/m2
23:29 47.2 °F /  8.4 °C 42.3 °F /  5.7 °C 30.24in /  1023.9hPa ENE 5.1mph /  8.2km/h 13mph /  20.9km/h 82.9% 0.00in /  0mm 0 W/m2
23:34 47.1 °F /  8.4 °C 42.2 °F /  5.7 °C 30.24in /  1023.9hPa East 5.8mph /  9.3km/h 15mph /  24.1km/h 82.6% 0.00in /  0mm 0 W/m2
23:39 47.2 °F /  8.4 °C 42.4 °F /  5.8 °C 30.24in /  1023.9hPa ENE 5.4mph /  8.7km/h 14mph /  22.5km/h 83% 0.00in /  0mm 0 W/m2
23:44 47.3 °F /  8.5 °C 42.3 °F /  5.7 °C 30.24in /  1023.9hPa ENE 5.6mph /  9km/h 13mph /  20.9km/h 82.7% 0.00in /  0mm 0 W/m2
23:49 47.3 °F /  8.5 °C 42.1 °F /  5.6 °C 30.24in /  1023.9hPa ENE 5mph /  8km/h 13mph /  20.9km/h 82% 0.00in /  0mm 0 W/m2
23:54 47.4 °F /  8.6 °C 42.2 °F /  5.7 °C 30.24in /  1023.9hPa ENE 6.4mph /  10.3km/h 13mph /  20.9km/h 82% 0.00in /  0mm 0 W/m2
23:59 47.4 °F /  8.6 °C 42.2 °F /  5.7 °C 30.24in /  1023.9hPa East 4.6mph /  7.4km/h 11mph /  17.7km/h 82% 0.00in /  0mm 0 W/m2
Bath Spa Weather
Compliments of Weather Underground - 2 mb